createdAt,value
2023-04-02T00:00:12.156Z,7.33
2023-04-02T00:03:10.282Z,7.27
2023-04-02T00:05:54.418Z,7.23
2023-04-02T00:08:38.910Z,7.25
2023-04-02T00:11:09.152Z,7.28
2023-04-02T00:13:45.517Z,7.27
2023-04-02T00:16:19.954Z,7.27
2023-04-02T00:18:54.183Z,7.28
2023-04-02T00:21:31.166Z,7.25
2023-04-02T00:24:10.974Z,7.23
2023-04-02T00:26:45.050Z,7.23
2023-04-02T00:29:16.244Z,7.21
2023-04-02T00:31:49.243Z,7.18
2023-04-02T00:34:26.469Z,7.14
2023-04-02T00:36:54.970Z,7.14
2023-04-02T00:39:27.402Z,7.13
2023-04-02T00:42:05.706Z,7.09
2023-04-02T00:44:44.794Z,7.10
2023-04-02T00:47:19.027Z,7.08
2023-04-02T00:49:54.680Z,7.05
2023-04-02T00:52:29.269Z,7.01
2023-04-02T00:55:07.899Z,7.01
2023-04-02T00:57:36.516Z,7.01
2023-04-02T01:00:34.125Z,6.99
2023-04-02T01:03:17.099Z,6.99
2023-04-02T01:05:55.840Z,6.97
2023-04-02T01:09:03.996Z,6.97
2023-04-02T01:11:56.093Z,6.94
2023-04-02T01:14:49.175Z,6.95
2023-04-02T01:18:09.730Z,6.93
2023-04-02T01:21:25.561Z,6.95
2023-04-02T01:24:02.245Z,6.97
2023-04-02T01:26:57.703Z,6.97
2023-04-02T01:29:32.569Z,6.93
2023-04-02T01:32:22.576Z,6.92
2023-04-02T01:34:52.429Z,6.91
2023-04-02T01:37:44.962Z,6.91
2023-04-02T01:40:28.230Z,6.92
2023-04-02T01:43:23.069Z,6.96
2023-04-02T01:45:51.032Z,6.96
2023-04-02T01:48:27.311Z,6.94
2023-04-02T01:50:59.393Z,6.93
2023-04-02T01:53:31.212Z,6.91
2023-04-02T01:56:02.741Z,6.91
2023-04-02T01:58:33.569Z,6.92
2023-04-02T02:01:09.437Z,6.96
2023-04-02T02:03:42.494Z,6.97
2023-04-02T02:06:18.150Z,6.94
2023-04-02T02:08:54.689Z,6.94
2023-04-02T02:11:27.592Z,6.95
2023-04-02T02:14:12.584Z,6.97
2023-04-02T02:16:44.282Z,6.97
2023-04-02T02:19:36.934Z,6.95
2023-04-02T02:22:29.186Z,6.96
2023-04-02T02:25:01.016Z,6.96
2023-04-02T02:28:18.335Z,6.96
2023-04-02T02:30:51.752Z,6.98
2023-04-02T02:33:46.326Z,6.98
2023-04-02T02:36:24.701Z,6.98
2023-04-02T02:39:05.824Z,6.98
2023-04-02T02:42:02.459Z,7.00
2023-04-02T02:44:37.368Z,7.00
2023-04-02T02:47:18.462Z,7.03
2023-04-02T02:49:53.193Z,7.03
2023-04-02T02:52:35.078Z,7.00
2023-04-02T02:55:15.883Z,7.00
2023-04-02T02:58:04.560Z,6.98
2023-04-02T03:00:38.378Z,6.99
2023-04-02T03:03:30.223Z,7.03
2023-04-02T03:06:09.144Z,6.99
2023-04-02T03:08:51.777Z,7.02
2023-04-02T03:11:33.814Z,7.03
2023-04-02T03:14:22.939Z,7.00
2023-04-02T03:17:19.558Z,7.01
2023-04-02T03:20:06.515Z,7.04
2023-04-02T03:23:04.970Z,7.03
2023-04-02T03:25:46.365Z,7.05
2023-04-02T03:28:24.749Z,7.03
2023-04-02T03:31:04.950Z,7.01
2023-04-02T03:33:47.808Z,6.97
2023-04-02T03:36:33.747Z,7.01
2023-04-02T03:39:24.118Z,7.04
2023-04-02T03:42:00.374Z,7.03
2023-04-02T03:44:37.304Z,7.02
2023-04-02T03:47:17.514Z,7.04
2023-04-02T03:49:57.240Z,7.03
2023-04-02T03:52:28.531Z,7.03
2023-04-02T03:55:01.256Z,7.05
2023-04-02T03:58:02.079Z,7.04
2023-04-02T04:01:28.439Z,7.05
2023-04-02T04:04:07.799Z,7.03
2023-04-02T04:06:41.423Z,7.05
2023-04-02T04:09:24.295Z,7.06
2023-04-02T04:12:02.061Z,7.08
2023-04-02T04:14:42.329Z,7.05
2023-04-02T04:17:17.921Z,7.06
2023-04-02T04:19:55.463Z,7.09
2023-04-02T04:22:31.770Z,7.10
2023-04-02T04:25:19.350Z,7.07
2023-04-02T04:28:10.587Z,7.06
2023-04-02T04:31:18.020Z,7.05
2023-04-02T04:33:54.921Z,7.03
2023-04-02T04:36:32.144Z,7.06
2023-04-02T04:39:21.694Z,7.04
2023-04-02T04:41:54.293Z,7.04
2023-04-02T04:44:29.136Z,7.05
2023-04-02T04:47:09.262Z,7.07
2023-04-02T04:49:54.120Z,7.01
2023-04-02T04:52:35.484Z,7.01
2023-04-02T04:55:20.368Z,7.03
2023-04-02T04:57:50.803Z,7.00
2023-04-02T05:01:16.604Z,6.94
2023-04-02T05:03:58.445Z,6.95
2023-04-02T05:06:45.596Z,6.92
2023-04-02T05:09:51.988Z,6.87
2023-04-02T05:12:44.535Z,6.81
2023-04-02T05:15:42.263Z,6.82
2023-04-02T05:18:36.452Z,6.79
2023-04-02T05:21:14.544Z,6.76
2023-04-02T05:23:56.023Z,6.75
2023-04-02T05:26:41.835Z,6.72
2023-04-02T05:29:18.228Z,6.70
2023-04-02T05:32:03.535Z,6.71
2023-04-02T05:34:41.817Z,6.72
2023-04-02T05:37:21.108Z,6.70
2023-04-02T05:40:00.928Z,6.70
2023-04-02T05:42:35.395Z,6.70
2023-04-02T05:45:14.593Z,6.71
2023-04-02T05:47:46.780Z,6.71
2023-04-02T05:50:26.061Z,6.71
2023-04-02T05:53:08.754Z,6.72
2023-04-02T05:55:51.909Z,6.72
2023-04-02T05:58:43.929Z,6.69
2023-04-02T06:01:37.652Z,6.71
2023-04-02T06:04:34.810Z,6.71
2023-04-02T06:07:23.778Z,6.69
2023-04-02T06:10:00.769Z,6.71
2023-04-02T06:12:42.048Z,6.70
2023-04-02T06:15:16.966Z,6.73
2023-04-02T06:18:26.053Z,6.68
2023-04-02T06:20:55.837Z,6.66
2023-04-02T06:23:40.887Z,6.67
2023-04-02T06:26:33.240Z,6.66
2023-04-02T06:29:05.058Z,6.68
2023-04-02T06:31:38.878Z,6.65
2023-04-02T06:34:21.030Z,6.64
2023-04-02T06:37:18.240Z,6.61
2023-04-02T06:39:46.470Z,6.59
2023-04-02T06:42:26.546Z,6.62
2023-04-02T06:45:25.615Z,6.65
2023-04-02T06:48:19.823Z,6.66
2023-04-02T06:51:12.992Z,6.65
2023-04-02T06:53:46.758Z,6.70
2023-04-02T06:56:22.237Z,6.73
2023-04-02T06:58:50.659Z,6.75
2023-04-02T07:01:27.055Z,6.72
2023-04-02T07:03:57.066Z,6.70
2023-04-02T07:06:29.989Z,6.69
2023-04-02T07:09:00.761Z,6.72
2023-04-02T07:11:28.655Z,6.77
2023-04-02T07:13:59.537Z,6.83
2023-04-02T07:16:30.634Z,6.88
2023-04-02T07:18:59.421Z,6.89
2023-04-02T07:21:29.006Z,6.97
2023-04-02T07:23:57.803Z,7.03
2023-04-02T07:26:28.017Z,7.08
2023-04-02T07:28:56.166Z,7.08
2023-04-02T07:31:27.713Z,7.10
2023-04-02T07:33:59.765Z,7.11
2023-04-02T07:36:29.667Z,7.05
2023-04-02T07:38:58.093Z,7.13
2023-04-02T07:41:26.374Z,7.17
2023-04-02T07:43:54.290Z,7.19
2023-04-02T07:46:22.202Z,7.20
2023-04-02T07:48:50.303Z,7.26
2023-04-02T07:51:26.612Z,7.31
2023-04-02T07:53:57.482Z,7.34
2023-04-02T07:56:26.113Z,7.34
2023-04-02T07:58:54.031Z,7.32
2023-04-02T08:01:27.587Z,7.28
2023-04-02T08:03:58.189Z,7.23
2023-04-02T08:06:26.266Z,7.18
2023-04-02T08:08:54.792Z,7.18
2023-04-02T08:11:23.015Z,7.23
2023-04-02T08:13:51.989Z,7.27
2023-04-02T08:16:19.979Z,7.26
2023-04-02T08:18:47.853Z,7.32
2023-04-02T08:21:16.627Z,7.40
2023-04-02T08:23:45.240Z,7.49
2023-04-02T08:26:18.913Z,7.50
2023-04-02T08:28:46.867Z,7.51
2023-04-02T08:31:14.678Z,7.56
2023-04-02T08:33:42.495Z,7.61
2023-04-02T08:36:17.724Z,7.66
2023-04-02T08:38:46.711Z,7.61
2023-04-02T08:41:27.614Z,7.58
2023-04-02T08:44:57.209Z,7.54
2023-04-02T08:47:27.263Z,7.54
2023-04-02T08:50:02.481Z,7.53
2023-04-02T08:52:38.207Z,7.54
2023-04-02T08:55:23.789Z,7.66
2023-04-02T08:58:06.497Z,7.64
2023-04-02T09:00:43.878Z,7.66
2023-04-02T09:03:30.486Z,7.68
2023-04-02T09:06:04.606Z,7.68
2023-04-02T09:08:35.488Z,7.72
2023-04-02T09:11:22.568Z,7.76
2023-04-02T09:14:01.808Z,7.74
2023-04-02T09:16:58.685Z,7.79
2023-04-02T09:19:55.460Z,7.72
2023-04-02T09:22:32.933Z,7.71
2023-04-02T09:25:12.293Z,7.69
2023-04-02T09:27:40.089Z,7.66
2023-04-02T09:30:32.392Z,7.67
2023-04-02T09:33:09.953Z,7.74
2023-04-02T09:35:50.508Z,7.81
2023-04-02T09:38:22.894Z,7.91
2023-04-02T09:41:00.769Z,7.93
2023-04-02T09:43:39.395Z,8.04
2023-04-02T09:46:13.184Z,8.18
2023-04-02T09:48:49.696Z,8.29
2023-04-02T09:51:21.497Z,8.44
2023-04-02T09:54:07.629Z,8.52
2023-04-02T09:56:38.423Z,8.60
2023-04-02T09:59:17.175Z,8.62
2023-04-02T10:01:55.688Z,8.66
2023-04-02T10:04:45.140Z,8.72
2023-04-02T10:07:32.588Z,8.70
2023-04-02T10:10:39.064Z,8.70
2023-04-02T10:13:18.827Z,8.58
2023-04-02T10:16:07.317Z,8.53
2023-04-02T10:18:58.354Z,8.54
2023-04-02T10:21:32.371Z,8.55
2023-04-02T10:24:00.375Z,8.72
2023-04-02T10:26:45.216Z,8.91
2023-04-02T10:29:21.553Z,8.92
2023-04-02T10:32:14.910Z,9.02
2023-04-02T10:35:08.878Z,9.03
2023-04-02T10:37:45.962Z,9.13
2023-04-02T10:40:49.568Z,9.17
2023-04-02T10:43:41.596Z,9.06
2023-04-02T10:46:37.855Z,8.98
2023-04-02T10:49:41.032Z,8.97
2023-04-02T10:52:36.218Z,8.99
2023-04-02T10:55:18.113Z,9.09
2023-04-02T10:57:47.140Z,9.13
2023-04-02T11:00:41.643Z,9.16
2023-04-02T11:03:43.439Z,9.27
2023-04-02T11:06:22.458Z,9.20
2023-04-02T11:08:57.621Z,9.05
2023-04-02T11:11:47.635Z,9.02
2023-04-02T11:14:31.469Z,9.10
2023-04-02T11:17:02.998Z,9.33
2023-04-02T11:19:33.201Z,9.46
2023-04-02T11:22:24.497Z,9.29
2023-04-02T11:24:56.025Z,9.20
2023-04-02T11:27:28.107Z,9.15
2023-04-02T11:30:06.401Z,9.15
2023-04-02T11:32:43.090Z,9.28
2023-04-02T11:35:39.199Z,9.38
2023-04-02T11:38:11.958Z,9.38
2023-04-02T11:41:06.086Z,9.35
2023-04-02T11:43:34.118Z,9.37
2023-04-02T11:46:34.849Z,9.22
2023-04-02T11:49:37.954Z,9.07
2023-04-02T11:52:22.137Z,9.18
2023-04-02T11:55:34.406Z,9.21
2023-04-02T11:58:35.998Z,9.52
2023-04-02T12:01:14.863Z,9.71
2023-04-02T12:04:11.836Z,10.00
2023-04-02T12:07:10.865Z,10.33
2023-04-02T12:09:46.789Z,10.64
2023-04-02T12:12:36.798Z,10.92
2023-04-02T12:15:48.562Z,10.99
2023-04-02T12:18:23.784Z,11.20
2023-04-02T12:20:56.560Z,11.60
2023-04-02T12:23:31.943Z,11.94
2023-04-02T12:26:24.084Z,11.80
2023-04-02T12:28:51.913Z,11.84
2023-04-02T12:31:25.304Z,11.85
2023-04-02T12:33:53.591Z,12.02
2023-04-02T12:36:23.711Z,12.20
2023-04-02T12:38:58.112Z,11.92
2023-04-02T12:41:33.405Z,11.60
2023-04-02T12:44:11.601Z,11.64
2023-04-02T12:46:40.672Z,11.78
2023-04-02T12:49:23.638Z,11.82
2023-04-02T12:51:52.845Z,11.80
2023-04-02T12:54:21.567Z,11.64
2023-04-02T12:56:50.838Z,11.44
2023-04-02T12:59:34.877Z,11.13
2023-04-02T13:02:18.639Z,10.79
2023-04-02T13:05:01.134Z,10.83
2023-04-02T13:07:33.735Z,10.95
2023-04-02T13:10:24.220Z,11.02
2023-04-02T13:13:02.556Z,10.97
2023-04-02T13:15:34.646Z,11.07
2023-04-02T13:18:13.575Z,11.06
2023-04-02T13:20:54.159Z,10.94
2023-04-02T13:23:34.326Z,10.77
2023-04-02T13:26:27.814Z,10.77
2023-04-02T13:29:17.716Z,11.01
2023-04-02T13:31:45.540Z,11.12
2023-04-02T13:34:13.389Z,11.29
2023-04-02T13:36:41.439Z,11.32
2023-04-02T13:39:10.007Z,11.32
2023-04-02T13:41:54.951Z,11.22
2023-04-02T13:44:29.946Z,11.16
2023-04-02T13:46:58.707Z,11.24
2023-04-02T13:49:27.987Z,11.02
2023-04-02T13:52:00.482Z,10.90
2023-04-02T13:54:55.728Z,10.74
2023-04-02T13:57:23.782Z,10.85
2023-04-02T13:59:51.615Z,10.92
2023-04-02T14:02:25.744Z,11.05
2023-04-02T14:05:28.642Z,11.25
2023-04-02T14:08:24.735Z,11.50
2023-04-02T14:11:25.270Z,11.67
2023-04-02T14:14:02.164Z,11.80
2023-04-02T14:16:56.910Z,11.65
2023-04-02T14:19:46.723Z,11.78
2023-04-02T14:22:46.331Z,11.59
2023-04-02T14:26:08.593Z,11.54
2023-04-02T14:29:11.007Z,11.12
2023-04-02T14:31:57.577Z,10.92
2023-04-02T14:34:53.785Z,11.13
2023-04-02T14:37:45.404Z,11.45
2023-04-02T14:40:25.799Z,11.69
2023-04-02T14:43:03.337Z,11.70
2023-04-02T14:46:01.657Z,11.64
2023-04-02T14:49:27.290Z,11.46
2023-04-02T14:52:05.050Z,11.39
2023-04-02T14:54:51.766Z,11.54
2023-04-02T14:57:26.521Z,11.65
2023-04-02T15:00:11.805Z,11.66
2023-04-02T15:02:56.407Z,11.85
2023-04-02T15:05:48.938Z,12.11
2023-04-02T15:08:24.018Z,12.07
2023-04-02T15:11:29.724Z,11.82
2023-04-02T15:14:17.864Z,11.47
2023-04-02T15:16:47.070Z,11.57
2023-04-02T15:19:20.576Z,11.82
2023-04-02T15:22:41.454Z,12.07
2023-04-02T15:25:49.156Z,12.06
2023-04-02T15:28:34.963Z,11.66
2023-04-02T15:31:15.415Z,11.38
2023-04-02T15:34:19.724Z,11.40
2023-04-02T15:37:13.659Z,11.40
2023-04-02T15:40:08.421Z,11.69
2023-04-02T15:42:50.411Z,11.69
2023-04-02T15:45:38.564Z,11.37
2023-04-02T15:48:45.139Z,11.09
2023-04-02T15:51:49.828Z,11.10
2023-04-02T15:55:04.375Z,11.15
2023-04-02T15:58:08.754Z,11.40
2023-04-02T16:01:13.507Z,11.71
2023-04-02T16:03:44.342Z,11.81
2023-04-02T16:06:31.240Z,11.60
2023-04-02T16:09:23.246Z,11.24
2023-04-02T16:12:09.717Z,11.03
2023-04-02T16:14:41.859Z,10.85
2023-04-02T16:17:25.610Z,10.84
2023-04-02T16:20:17.310Z,10.92
2023-04-02T16:23:00.584Z,10.97
2023-04-02T16:25:39.664Z,11.00
2023-04-02T16:29:01.062Z,10.97
2023-04-02T16:31:42.492Z,11.08
2023-04-02T16:34:55.078Z,11.23
2023-04-02T16:38:07.120Z,11.15
2023-04-02T16:41:04.770Z,11.05
2023-04-02T16:43:52.778Z,10.90
2023-04-02T16:46:39.057Z,10.89
2023-04-02T16:49:28.173Z,10.86
2023-04-02T16:52:08.858Z,10.87
2023-04-02T16:55:01.073Z,10.88
2023-04-02T16:58:07.799Z,10.70
2023-04-02T17:00:53.858Z,10.69
2023-04-02T17:03:56.090Z,10.63
2023-04-02T17:07:03.086Z,10.61
2023-04-02T17:09:53.721Z,10.64
2023-04-02T17:12:29.459Z,10.70
2023-04-02T17:15:11.646Z,10.70
2023-04-02T17:17:49.380Z,10.72
2023-04-02T17:20:23.774Z,10.73
2023-04-02T17:22:54.955Z,10.65
2023-04-02T17:25:34.065Z,10.56
2023-04-02T17:28:03.126Z,10.48
2023-04-02T17:30:53.574Z,10.43
2023-04-02T17:33:26.759Z,10.45
2023-04-02T17:36:08.621Z,10.44
2023-04-02T17:39:22.694Z,10.34
2023-04-02T17:42:26.473Z,10.21
2023-04-02T17:45:19.347Z,10.15
2023-04-02T17:48:10.880Z,10.07
2023-04-02T17:51:16.114Z,9.95
2023-04-02T17:54:11.368Z,9.85
2023-04-02T17:57:06.366Z,9.75
2023-04-02T18:00:02.636Z,9.64
2023-04-02T18:03:26.804Z,9.52
2023-04-02T18:06:06.792Z,9.43
2023-04-02T18:09:19.313Z,9.37
2023-04-02T18:12:06.981Z,9.25
2023-04-02T18:15:05.878Z,9.16
2023-04-02T18:18:11.430Z,9.06
2023-04-02T18:21:11.206Z,9.00
2023-04-02T18:24:09.778Z,8.87
2023-04-02T18:26:59.922Z,8.75
2023-04-02T18:30:01.812Z,8.68
2023-04-02T18:33:14.440Z,8.58
2023-04-02T18:36:17.126Z,8.49
2023-04-02T18:39:22.070Z,8.35
2023-04-02T18:41:59.289Z,8.27
2023-04-02T18:45:04.468Z,8.17
2023-04-02T18:48:00.305Z,8.07
2023-04-02T18:50:35.745Z,8.00
2023-04-02T18:53:18.636Z,7.91
2023-04-02T18:56:20.144Z,7.83
2023-04-02T18:58:53.002Z,7.74
2023-04-02T19:01:34.904Z,7.67
2023-04-02T19:04:09.685Z,7.57
2023-04-02T19:07:13.447Z,7.47
2023-04-02T19:09:47.856Z,7.36
2023-04-02T19:12:24.349Z,7.32
2023-04-02T19:14:52.782Z,7.25
2023-04-02T19:17:44.564Z,7.18
2023-04-02T19:20:46.296Z,7.17
2023-04-02T19:23:43.122Z,7.12
2023-04-02T19:26:22.827Z,7.02
2023-04-02T19:29:31.087Z,6.95
2023-04-02T19:32:19.987Z,6.90
2023-04-02T19:35:06.304Z,6.85
2023-04-02T19:37:39.641Z,6.80
2023-04-02T19:40:42.507Z,6.78
2023-04-02T19:43:14.003Z,6.73
2023-04-02T19:45:48.378Z,6.71
2023-04-02T19:48:22.268Z,6.63
2023-04-02T19:50:51.967Z,6.59
2023-04-02T19:53:22.653Z,6.56
2023-04-02T19:55:52.737Z,6.52
2023-04-02T19:58:32.129Z,6.49
2023-04-02T20:01:03.279Z,6.46
2023-04-02T20:03:35.654Z,6.40
2023-04-02T20:06:05.785Z,6.34
2023-04-02T20:08:36.877Z,6.29
2023-04-02T20:11:08.034Z,6.26
2023-04-02T20:13:37.143Z,6.21
2023-04-02T20:16:07.763Z,6.16
2023-04-02T20:18:37.529Z,6.12
2023-04-02T20:21:08.465Z,6.09
2023-04-02T20:23:37.360Z,6.05
2023-04-02T20:26:06.727Z,6.02
2023-04-02T20:28:36.114Z,5.96
2023-04-02T20:31:11.139Z,5.91
2023-04-02T20:33:41.974Z,5.83
2023-04-02T20:36:17.223Z,5.80
2023-04-02T20:38:45.942Z,5.76
2023-04-02T20:41:16.173Z,5.73
2023-04-02T20:43:44.915Z,5.72
2023-04-02T20:46:14.743Z,5.68
2023-04-02T20:48:44.071Z,5.63
2023-04-02T20:51:15.491Z,5.57
2023-04-02T20:53:43.709Z,5.54
2023-04-02T20:56:16.178Z,5.50
2023-04-02T20:58:44.362Z,5.50
2023-04-02T21:01:28.065Z,5.45
2023-04-02T21:04:00.560Z,5.38
2023-04-02T21:06:33.060Z,5.38
2023-04-02T21:09:07.719Z,5.32
2023-04-02T21:11:37.381Z,5.36
2023-04-02T21:14:05.537Z,5.38
2023-04-02T21:16:33.956Z,5.40
2023-04-02T21:19:07.399Z,5.38
2023-04-02T21:21:37.354Z,5.35
2023-04-02T21:24:08.558Z,5.33
2023-04-02T21:26:40.305Z,5.29
2023-04-02T21:29:08.302Z,5.16
2023-04-02T21:31:39.766Z,5.07
2023-04-02T21:34:13.649Z,4.99
2023-04-02T21:36:45.501Z,4.94
2023-04-02T21:39:22.824Z,4.90
2023-04-02T21:41:53.442Z,4.81
2023-04-02T21:44:23.763Z,4.68
2023-04-02T21:46:54.179Z,4.59
2023-04-02T21:49:23.561Z,4.54
2023-04-02T21:51:52.297Z,4.53
2023-04-02T21:54:20.288Z,4.53
2023-04-02T21:56:50.010Z,4.55
2023-04-02T21:59:18.974Z,4.51
2023-04-02T22:01:51.104Z,4.47
2023-04-02T22:04:25.386Z,4.54
2023-04-02T22:06:53.970Z,4.52
2023-04-02T22:09:25.226Z,4.45
2023-04-02T22:11:59.199Z,4.36
2023-04-02T22:14:28.546Z,4.29
2023-04-02T22:16:58.766Z,4.24
2023-04-02T22:19:27.429Z,4.25
2023-04-02T22:21:57.288Z,4.24
2023-04-02T22:24:25.627Z,4.19
2023-04-02T22:26:54.078Z,4.14
2023-04-02T22:29:22.421Z,4.07
2023-04-02T22:31:50.865Z,4.01
2023-04-02T22:34:19.013Z,3.99
2023-04-02T22:36:46.902Z,3.95
2023-04-02T22:39:16.322Z,3.84
2023-04-02T22:41:44.159Z,3.77
2023-04-02T22:44:15.519Z,3.77
2023-04-02T22:46:43.638Z,3.71
2023-04-02T22:49:19.504Z,3.66
2023-04-02T22:51:48.194Z,3.68
2023-04-02T22:54:16.331Z,3.62
2023-04-02T22:56:44.341Z,3.57
2023-04-02T22:59:12.427Z,3.53
2023-04-02T23:01:41.084Z,3.47
2023-04-02T23:04:09.557Z,3.47
2023-04-02T23:06:37.573Z,3.44
2023-04-02T23:09:05.561Z,3.39
2023-04-02T23:11:33.713Z,3.36
2023-04-02T23:14:01.785Z,3.35
2023-04-02T23:16:30.524Z,3.32
2023-04-02T23:18:58.860Z,3.29
2023-04-02T23:21:27.514Z,3.24
2023-04-02T23:23:56.272Z,3.19
2023-04-02T23:26:29.596Z,3.14
2023-04-02T23:28:59.844Z,3.09
2023-04-02T23:31:29.035Z,3.08
2023-04-02T23:33:57.023Z,3.06
2023-04-02T23:36:29.223Z,3.05
2023-04-02T23:39:04.552Z,3.04
2023-04-02T23:41:32.541Z,3.02
2023-04-02T23:44:01.060Z,3.00
2023-04-02T23:46:31.101Z,2.99
2023-04-02T23:49:00.720Z,2.99
2023-04-02T23:51:34.120Z,3.04
2023-04-02T23:54:02.076Z,3.09
2023-04-02T23:56:30.116Z,3.12
2023-04-02T23:58:58.024Z,3.14
